Time;durP1;ratioP1;P1;durP2;ratioP2;P2;SDS_P1;SDS_P2;PMS_P1;PMS_P2;Temp;Humidity;BMP_temperature;BMP_pressure;BME280_temperature;BME280_humidity;BME280_pressure;Samples;Min_cycle;Max_cycle;Signal;HPM_P1;HPM_P2
2023/09/08 00:01:53;;;;;;;8.15;5.65;;;20.10;99.90;;;;;;5132616;27;20039;-63
2023/09/08 00:04:20;;;;;;;8.73;5.70;;;20.10;99.90;;;;;;5129237;27;20039;-63
2023/09/08 00:06:46;;;;;;;8.25;5.85;;;20.10;99.90;;;;;;5129805;27;20541;-62
2023/09/08 00:09:12;;;;;;;8.25;6.07;;;20.00;99.90;;;;;;5107157;27;20043;-63
2023/09/08 00:11:37;;;;;;;7.75;6.28;;;20.00;99.90;;;;;;5113771;27;20074;-63
2023/09/08 00:14:03;;;;;;;7.70;5.93;;;20.00;99.90;;;;;;5101409;28;20051;-63
2023/09/08 00:16:30;;;;;;;8.10;6.32;;;20.00;99.90;;;;;;5112301;27;20035;-63
2023/09/08 00:18:58;;;;;;;6.30;5.60;;;19.90;99.90;;;;;;5129716;27;20031;-63
2023/09/08 00:21:24;;;;;;;8.27;5.65;;;19.90;99.90;;;;;;5131519;27;20039;-63
2023/09/08 00:23:51;;;;;;;7.88;6.05;;;19.90;99.90;;;;;;5128880;27;20091;-63
2023/09/08 00:26:17;;;;;;;6.95;6.25;;;19.90;99.90;;;;;;5106205;28;20044;-63
2023/09/08 00:28:42;;;;;;;6.32;5.72;;;19.80;99.90;;;;;;5131659;27;20398;-63
2023/09/08 00:31:08;;;;;;;6.55;5.80;;;19.80;99.90;;;;;;5111886;27;20055;-63
2023/09/08 00:33:33;;;;;;;7.72;6.15;;;19.80;99.90;;;;;;5112925;27;20054;-63
2023/09/08 00:35:59;;;;;;;9.13;6.30;;;19.70;99.90;;;;;;5107486;27;20394;-63
2023/09/08 00:38:25;;;;;;;6.82;6.20;;;19.70;99.90;;;;;;5131549;27;20038;-63
2023/09/08 00:40:51;;;;;;;6.82;5.80;;;19.60;99.90;;;;;;5129538;27;20039;-63
2023/09/08 00:43:17;;;;;;;6.97;6.28;;;19.60;99.90;;;;;;5112967;27;20050;-63
2023/09/08 00:45:43;;;;;;;7.35;6.60;;;19.50;99.90;;;;;;5127223;27;20038;-63
2023/09/08 00:48:10;;;;;;;8.25;6.72;;;19.50;99.90;;;;;;5095033;27;20494;-63
2023/09/08 00:50:39;;;;;;;7.88;6.70;;;19.50;99.90;;;;;;5108968;27;20051;-63
2023/09/08 00:53:06;;;;;;;7.97;6.72;;;19.40;99.90;;;;;;5113063;27;20050;-63
2023/09/08 00:55:33;;;;;;;7.18;6.47;;;19.40;99.90;;;;;;5129352;27;20046;-63
2023/09/08 00:57:59;;;;;;;7.95;6.75;;;19.40;99.90;;;;;;5110427;27;20067;-63
2023/09/08 01:00:26;;;;;;;8.95;6.50;;;19.30;99.90;;;;;;5112851;27;20112;-63
2023/09/08 01:02:52;;;;;;;7.60;6.70;;;19.30;99.90;;;;;;5128563;27;20483;-63
2023/09/08 01:05:17;;;;;;;7.55;6.10;;;19.30;99.90;;;;;;5095404;27;20130;-63
2023/09/08 01:07:44;;;;;;;9.95;6.50;;;19.20;99.90;;;;;;5106681;28;20047;-63
2023/09/08 01:10:10;;;;;;;9.25;7.00;;;19.20;99.90;;;;;;5095795;27;20107;-63
2023/09/08 01:12:36;;;;;;;7.68;6.93;;;19.10;99.90;;;;;;5110081;27;20505;-63
2023/09/08 01:15:02;;;;;;;10.63;6.78;;;19.10;99.90;;;;;;5112682;28;20492;-63
2023/09/08 01:17:28;;;;;;;8.27;6.68;;;19.10;99.90;;;;;;5112869;28;20045;-63
2023/09/08 01:20:16;;;;;;;10.52;7.43;;;19.10;99.90;;;;;;5128160;27;20154;-63
2023/09/08 01:22:45;;;;;;;12.38;7.00;;;19.00;99.90;;;;;;5127907;28;20047;-63
2023/09/08 01:25:19;;;;;;;13.25;6.90;;;19.00;99.90;;;;;;5112780;28;20047;-63
2023/09/08 01:27:55;;;;;;;10.07;7.40;;;18.90;99.90;;;;;;5110897;28;20500;-63
2023/09/08 01:30:24;;;;;;;8.35;7.55;;;18.90;99.90;;;;;;5131323;28;20131;-63
2023/09/08 01:32:51;;;;;;;9.23;7.40;;;18.90;99.90;;;;;;5110334;28;20067;-63
2023/09/08 01:35:17;;;;;;;7.85;7.15;;;18.90;99.90;;;;;;5110091;28;20070;-63
2023/09/08 01:37:45;;;;;;;8.20;7.40;;;18.80;99.90;;;;;;5112342;28;20071;-63
2023/09/08 01:40:11;;;;;;;8.20;7.03;;;18.80;99.90;;;;;;5129020;28;20478;-63
2023/09/08 01:42:38;;;;;;;8.60;7.13;;;18.70;99.90;;;;;;5110588;28;20046;-63
2023/09/08 01:45:04;;;;;;;7.93;7.22;;;18.70;99.90;;;;;;5128027;28;20393;-62
2023/09/08 01:47:30;;;;;;;8.60;7.57;;;18.60;99.90;;;;;;5112412;28;20031;-63
2023/09/08 01:49:56;;;;;;;9.48;7.70;;;18.50;99.90;;;;;;5106010;28;20465;-62
2023/09/08 01:52:21;;;;;;;9.02;7.20;;;18.40;99.90;;;;;;5088982;28;20035;-63
2023/09/08 01:54:47;;;;;;;8.27;7.47;;;18.30;99.90;;;;;;5115334;28;20039;-63
2023/09/08 01:57:13;;;;;;;8.35;7.20;;;18.30;99.90;;;;;;5117164;28;20078;-63
2023/09/08 01:59:38;;;;;;;8.80;7.22;;;18.20;99.90;;;;;;5130754;28;20039;-63
2023/09/08 02:02:04;;;;;;;10.30;7.80;;;18.20;99.90;;;;;;5104456;27;20052;-63
2023/09/08 02:04:30;;;;;;;8.27;7.50;;;18.10;99.90;;;;;;5117956;27;20460;-63
2023/09/08 02:06:55;;;;;;;8.88;8.05;;;18.10;99.90;;;;;;5111099;27;20035;-63
2023/09/08 02:09:22;;;;;;;12.38;8.23;;;18.10;99.90;;;;;;5116001;27;20035;-63
2023/09/08 02:11:47;;;;;;;12.10;9.13;;;18.10;99.90;;;;;;5095173;27;20039;-63
2023/09/08 02:14:13;;;;;;;9.30;8.35;;;18.00;99.90;;;;;;5115740;27;20042;-64
2023/09/08 02:16:39;;;;;;;9.85;8.75;;;18.00;99.90;;;;;;5132236;27;20031;-63
2023/09/08 02:19:05;;;;;;;10.52;8.40;;;18.00;99.90;;;;;;5115816;27;20423;-63
2023/09/08 02:21:30;;;;;;;9.88;8.88;;;18.00;99.90;;;;;;5132062;27;20039;-62
2023/09/08 02:23:56;;;;;;;11.32;9.50;;;18.00;99.90;;;;;;5132055;27;20486;-63
2023/09/08 02:26:22;;;;;;;9.88;8.88;;;18.00;99.90;;;;;;5113364;27;20125;-63
2023/09/08 02:28:47;;;;;;;11.05;9.85;;;18.00;99.90;;;;;;5114241;27;20043;-63
2023/09/08 02:31:13;;;;;;;9.73;8.73;;;18.00;99.90;;;;;;5115428;27;20134;-63
2023/09/08 02:33:38;;;;;;;11.20;9.18;;;17.90;99.90;;;;;;5113284;27;20047;-62
2023/09/08 02:36:08;;;;;;;10.55;9.32;;;18.00;99.90;;;;;;5113385;27;20047;-63
2023/09/08 02:38:33;;;;;;;11.60;9.75;;;18.00;99.90;;;;;;5134224;27;20126;-63
2023/09/08 02:40:59;;;;;;;11.43;9.35;;;17.90;99.90;;;;;;5130064;27;20451;-63
2023/09/08 02:43:25;;;;;;;12.98;9.75;;;17.90;99.90;;;;;;5114757;27;20031;-63
2023/09/08 02:45:50;;;;;;;10.50;9.48;;;17.90;99.90;;;;;;5115093;27;20050;-62
2023/09/08 02:48:16;;;;;;;11.15;10.00;;;17.90;99.90;;;;;;5111772;27;20035;-63
2023/09/08 02:50:43;;;;;;;11.85;10.10;;;17.80;99.90;;;;;;5115234;27;20436;-62
2023/09/08 02:53:09;;;;;;;11.88;10.18;;;17.80;99.90;;;;;;5096308;27;20086;-62
2023/09/08 02:55:35;;;;;;;11.77;10.07;;;17.80;99.90;;;;;;5115419;27;20543;-63
2023/09/08 02:58:00;;;;;;;11.13;10.02;;;17.70;99.90;;;;;;5112622;27;20039;-63
2023/09/08 03:00:27;;;;;;;11.68;10.57;;;17.60;99.90;;;;;;5133461;27;20076;-63
2023/09/08 03:02:52;;;;;;;12.40;10.40;;;17.60;99.90;;;;;;5112706;27;20082;-63
2023/09/08 03:05:18;;;;;;;11.10;9.90;;;17.60;99.90;;;;;;5133298;27;20059;-63
2023/09/08 03:07:47;;;;;;;11.82;10.27;;;17.60;99.90;;;;;;5092550;27;20048;-62
2023/09/08 03:10:12;;;;;;;11.27;10.18;;;17.60;99.90;;;;;;5112797;27;20039;-63
2023/09/08 03:12:38;;;;;;;12.10;9.57;;;17.50;99.90;;;;;;5114489;27;20042;-63
2023/09/08 03:15:04;;;;;;;11.27;10.13;;;17.50;99.90;;;;;;5113043;27;20122;-63
2023/09/08 03:17:30;;;;;;;13.30;10.00;;;17.50;99.90;;;;;;5114467;27;20538;-63
2023/09/08 03:19:55;;;;;;;12.18;9.68;;;17.40;99.90;;;;;;5112287;27;20051;-63
2023/09/08 03:22:21;;;;;;;12.43;10.40;;;17.40;99.90;;;;;;5111048;28;20520;-63
2023/09/08 03:24:47;;;;;;;11.45;10.30;;;17.40;99.90;;;;;;5090624;28;20128;-62
2023/09/08 03:27:12;;;;;;;12.98;10.60;;;17.40;99.90;;;;;;5089938;28;20040;-62
2023/09/08 03:29:38;;;;;;;12.18;10.90;;;17.40;99.90;;;;;;5090592;28;20075;-63
2023/09/08 03:32:04;;;;;;;14.55;10.63;;;17.30;99.90;;;;;;5087241;28;20123;-63
2023/09/08 03:34:30;;;;;;;11.68;10.48;;;17.30;99.90;;;;;;5088074;28;20406;-63
2023/09/08 03:36:55;;;;;;;11.77;9.80;;;17.30;99.90;;;;;;5091770;28;20066;-63
2023/09/08 03:39:21;;;;;;;11.63;10.52;;;17.30;99.90;;;;;;5086338;28;20040;-63
2023/09/08 03:41:46;;;;;;;11.52;10.25;;;17.30;99.90;;;;;;5090326;28;20032;-63
2023/09/08 03:44:12;;;;;;;14.85;11.50;;;17.20;99.90;;;;;;5072176;28;20044;-63
2023/09/08 03:46:38;;;;;;;12.20;10.68;;;17.20;99.90;;;;;;5072946;28;20051;-63
2023/09/08 03:49:03;;;;;;;12.07;10.57;;;17.20;99.90;;;;;;5073178;28;20402;-63
2023/09/08 03:51:29;;;;;;;15.13;10.52;;;17.20;99.90;;;;;;5090260;28;20561;-63
2023/09/08 03:53:55;;;;;;;12.50;11.00;;;17.10;99.90;;;;;;5080428;28;20055;-63
2023/09/08 03:56:20;;;;;;;11.45;10.23;;;17.10;99.90;;;;;;5081405;28;20040;-63
2023/09/08 03:58:47;;;;;;;13.57;11.10;;;17.10;99.90;;;;;;5090092;28;20056;-63
2023/09/08 04:01:12;;;;;;;12.48;10.55;;;17.10;99.90;;;;;;5082343;28;20052;-63
2023/09/08 04:03:38;;;;;;;12.50;11.05;;;17.00;99.90;;;;;;5082338;28;20038;-63
2023/09/08 04:06:04;;;;;;;13.55;10.10;;;17.00;99.90;;;;;;5087783;28;20040;-62
2023/09/08 04:08:29;;;;;;;12.65;10.82;;;17.00;99.90;;;;;;5089768;28;20090;-63
2023/09/08 04:10:55;;;;;;;14.82;10.77;;;17.00;99.90;;;;;;5088591;28;20493;-63
2023/09/08 04:13:20;;;;;;;11.18;10.07;;;17.00;99.90;;;;;;5090414;28;20075;-63
2023/09/08 04:15:46;;;;;;;13.02;11.68;;;17.00;99.90;;;;;;5087926;28;20044;-62
2023/09/08 04:18:12;;;;;;;12.38;11.10;;;17.00;99.90;;;;;;5087865;28;20180;-63
2023/09/08 04:20:37;;;;;;;12.35;10.63;;;16.90;99.90;;;;;;5089739;28;20048;-63
2023/09/08 04:23:03;;;;;;;11.10;10.10;;;17.00;99.90;;;;;;5114189;27;20425;-63
2023/09/08 04:25:29;;;;;;;14.15;10.68;;;16.90;99.90;;;;;;5112627;27;20034;-63
2023/09/08 04:27:54;;;;;;;12.38;10.98;;;16.90;99.90;;;;;;5107422;27;20043;-62
2023/09/08 04:30:21;;;;;;;12.38;11.13;;;16.90;99.90;;;;;;5113127;27;20138;-63
2023/09/08 04:32:46;;;;;;;12.75;10.82;;;16.90;99.90;;;;;;5130440;27;20042;-62
2023/09/08 04:35:12;;;;;;;12.00;10.65;;;16.90;99.90;;;;;;5113291;27;20409;-63
2023/09/08 04:37:39;;;;;;;12.73;10.93;;;16.80;99.90;;;;;;5109495;27;20040;-62
2023/09/08 04:40:05;;;;;;;11.82;10.63;;;16.80;99.90;;;;;;5113487;27;20040;-63
2023/09/08 04:42:31;;;;;;;11.90;10.80;;;16.80;99.90;;;;;;5111339;27;20130;-63
2023/09/08 04:44:56;;;;;;;11.75;10.65;;;16.80;99.90;;;;;;5112597;27;20114;-63
2023/09/08 04:47:22;;;;;;;12.27;10.93;;;16.80;99.90;;;;;;5111363;27;20466;-63
2023/09/08 04:49:48;;;;;;;12.10;10.40;;;16.80;99.90;;;;;;5109984;27;20084;-63
2023/09/08 04:52:14;;;;;;;11.75;10.65;;;16.80;99.90;;;;;;5113136;27;20051;-62
2023/09/08 04:54:40;;;;;;;16.60;11.25;;;16.70;99.90;;;;;;5128346;27;20135;-62
2023/09/08 04:57:05;;;;;;;12.52;10.95;;;16.80;99.90;;;;;;5110799;27;20039;-63
2023/09/08 04:59:32;;;;;;;13.30;11.20;;;16.80;99.90;;;;;;5108106;27;20138;-63
2023/09/08 05:01:58;;;;;;;12.93;10.25;;;16.70;99.90;;;;;;5109223;27;20544;-63
2023/09/08 05:04:24;;;;;;;11.90;10.65;;;16.80;99.90;;;;;;5131372;27;20074;-63
2023/09/08 05:06:49;;;;;;;13.60;10.98;;;16.70;99.90;;;;;;5110637;27;20099;-63
2023/09/08 05:09:15;;;;;;;12.43;11.07;;;16.80;99.90;;;;;;5129377;27;20162;-63
2023/09/08 05:11:41;;;;;;;11.35;10.23;;;16.70;99.90;;;;;;5111091;27;20034;-62
2023/09/08 05:14:07;;;;;;;11.80;10.35;;;16.70;99.90;;;;;;5111511;27;20443;-63
2023/09/08 05:16:46;;;;;;;12.48;10.73;;;16.80;99.90;;;;;;5112303;28;20571;-63
2023/09/08 05:19:13;;;;;;;12.55;10.38;;;16.80;99.90;;;;;;5094219;27;20435;-63
2023/09/08 05:21:39;;;;;;;10.70;9.60;;;16.80;99.90;;;;;;5110237;27;20117;-62
2023/09/08 05:24:06;;;;;;;13.40;10.65;;;16.80;99.90;;;;;;5095787;28;20043;-63
2023/09/08 05:26:31;;;;;;;10.75;9.65;;;16.80;99.90;;;;;;5110957;28;20508;-63
2023/09/08 05:28:57;;;;;;;13.38;10.30;;;16.90;99.90;;;;;;5112476;28;20035;-63
2023/09/08 05:31:23;;;;;;;13.95;10.55;;;16.90;99.90;;;;;;5108808;28;20048;-62
2023/09/08 05:33:48;;;;;;;12.88;10.18;;;16.90;99.90;;;;;;5102002;28;20050;-62
2023/09/08 05:36:14;;;;;;;12.77;10.18;;;17.00;99.90;;;;;;5103928;27;20050;-63
2023/09/08 05:38:40;;;;;;;13.90;10.27;;;17.00;99.90;;;;;;5107009;27;20035;-63
2023/09/08 05:41:05;;;;;;;11.00;9.93;;;17.00;99.90;;;;;;5084455;27;20047;-63
2023/09/08 05:43:31;;;;;;;14.30;10.50;;;17.10;99.90;;;;;;5115529;27;20043;-63
2023/09/08 05:45:56;;;;;;;11.05;9.45;;;17.10;99.90;;;;;;5118357;27;20130;-63
2023/09/08 05:48:22;;;;;;;11.32;9.68;;;17.20;99.90;;;;;;5112560;27;20046;-63
2023/09/08 05:50:48;;;;;;;11.32;9.30;;;17.20;99.90;;;;;;5112945;27;20031;-63
2023/09/08 05:53:13;;;;;;;11.10;9.93;;;17.30;99.90;;;;;;5113481;27;20050;-63
2023/09/08 05:55:39;;;;;;;10.32;9.23;;;17.30;99.90;;;;;;5114315;27;20429;-63
2023/09/08 05:58:07;;;;;;;11.20;10.10;;;17.40;99.90;;;;;;5113788;27;20043;-63
2023/09/08 06:00:33;;;;;;;10.45;9.40;;;17.50;99.90;;;;;;5114235;27;20039;-63
2023/09/08 06:02:58;;;;;;;12.57;9.82;;;17.50;99.90;;;;;;5116154;27;20410;-63
2023/09/08 06:05:24;;;;;;;10.50;8.93;;;17.50;99.90;;;;;;5094042;27;20047;-63
2023/09/08 06:07:50;;;;;;;10.18;8.73;;;17.60;99.90;;;;;;5115653;27;20507;-63
2023/09/08 06:10:15;;;;;;;12.35;9.50;;;17.70;99.90;;;;;;5113848;27;20042;-62
2023/09/08 06:12:41;;;;;;;10.60;9.57;;;17.80;99.90;;;;;;5115910;27;20126;-63
2023/09/08 06:15:07;;;;;;;10.40;9.40;;;17.80;99.90;;;;;;5114156;27;20142;-63
2023/09/08 06:17:33;;;;;;;10.20;9.07;;;17.90;99.90;;;;;;5111094;27;20043;-63
2023/09/08 06:19:59;;;;;;;10.50;9.15;;;18.00;99.90;;;;;;5134144;27;20374;-63
2023/09/08 06:22:24;;;;;;;10.75;8.63;;;18.10;99.90;;;;;;5132152;27;20043;-63
2023/09/08 06:24:50;;;;;;;9.25;8.20;;;18.20;99.90;;;;;;5114201;27;20047;-63
2023/09/08 06:27:15;;;;;;;9.90;8.75;;;18.30;99.90;;;;;;5131872;27;20407;-62
2023/09/08 06:29:43;;;;;;;9.63;8.63;;;18.40;99.90;;;;;;5115806;27;20062;-62
2023/09/08 06:32:09;;;;;;;10.30;9.27;;;18.60;99.90;;;;;;5114326;27;20456;-62
2023/09/08 06:34:35;;;;;;;12.68;8.65;;;18.70;99.90;;;;;;5115346;27;20051;-63
2023/09/08 06:37:02;;;;;;;10.68;8.70;;;18.80;99.90;;;;;;5109138;27;20043;-62
2023/09/08 06:39:28;;;;;;;9.85;8.73;;;19.00;99.90;;;;;;5096837;27;20039;-63
2023/09/08 06:41:53;;;;;;;10.90;8.63;;;19.10;99.90;;;;;;5098352;27;20049;-63
2023/09/08 06:44:22;;;;;;;10.95;8.20;;;19.30;99.90;;;;;;5113432;27;20490;-63
2023/09/08 06:46:48;;;;;;;9.70;8.80;;;19.40;99.90;;;;;;5098398;27;20031;-63
2023/09/08 06:49:13;;;;;;;13.20;8.90;;;19.50;99.90;;;;;;5130789;27;20031;-63
2023/09/08 06:51:39;;;;;;;10.07;9.07;;;19.70;99.90;;;;;;5133738;27;20040;-63
2023/09/08 06:54:05;;;;;;;10.13;8.57;;;19.80;99.90;;;;;;5131268;27;20038;-63
2023/09/08 06:56:31;;;;;;;9.52;8.32;;;19.90;99.90;;;;;;5114812;27;20035;-63
2023/09/08 06:59:00;;;;;;;9.52;8.60;;;20.00;99.90;;;;;;5127722;27;20043;-63
2023/09/08 07:01:26;;;;;;;12.55;9.50;;;20.10;99.90;;;;;;5096778;27;20070;-63
2023/09/08 07:03:51;;;;;;;10.55;8.40;;;20.20;99.90;;;;;;5133556;27;20074;-63
2023/09/08 07:06:17;;;;;;;9.63;8.73;;;20.30;99.90;;;;;;5113480;27;20114;-62
2023/09/08 07:08:43;;;;;;;9.32;8.48;;;20.50;99.90;;;;;;5112738;27;20076;-63
2023/09/08 07:11:08;;;;;;;9.57;8.15;;;20.60;99.90;;;;;;5133520;27;20038;-63
2023/09/08 07:13:34;;;;;;;9.13;8.23;;;20.70;99.90;;;;;;5113853;27;20122;-62
2023/09/08 07:16:00;;;;;;;11.45;8.43;;;20.80;99.90;;;;;;5129540;27;20042;-63
2023/09/08 07:18:25;;;;;;;11.43;8.68;;;21.00;99.90;;;;;;5114331;27;20043;-63
2023/09/08 07:20:51;;;;;;;10.35;8.23;;;21.10;99.90;;;;;;5110653;27;20050;-63
2023/09/08 07:23:20;;;;;;;9.13;8.07;;;21.20;99.90;;;;;;5110255;27;20043;-63
2023/09/08 07:25:47;;;;;;;9.98;7.93;;;21.30;99.90;;;;;;5114327;27;20054;-63
2023/09/08 07:28:13;;;;;;;8.63;7.82;;;21.50;99.90;;;;;;5131754;27;20489;-63
2023/09/08 07:30:38;;;;;;;9.88;8.05;;;21.60;99.90;;;;;;5108655;27;20669;-63
2023/09/08 07:33:05;;;;;;;8.13;7.28;;;21.70;99.90;;;;;;5132868;27;20035;-63
2023/09/08 07:35:31;;;;;;;12.32;8.93;;;21.80;99.90;;;;;;5113335;27;20439;-63
2023/09/08 07:37:57;;;;;;;11.05;8.18;;;21.90;99.90;;;;;;5128798;27;20027;-63
2023/09/08 07:40:22;;;;;;;9.05;7.88;;;22.10;99.90;;;;;;5125032;27;20039;-63
2023/09/08 07:42:48;;;;;;;8.98;7.60;;;22.20;99.90;;;;;;5088596;27;20046;-63
2023/09/08 07:45:14;;;;;;;11.23;7.43;;;22.30;99.90;;;;;;5118126;27;20165;-63
2023/09/08 07:47:39;;;;;;;11.00;7.18;;;22.40;99.90;;;;;;5131122;27;20038;-63
2023/09/08 07:50:22;;;;;;;8.93;7.30;;;22.50;99.90;;;;;;5098923;27;20073;-63
2023/09/08 07:52:48;;;;;;;;;;;22.70;99.90;;;;;;5100381;27;20035;-63
2023/09/08 07:55:14;;;;;;;11.48;7.53;;;22.80;99.90;;;;;;5098445;27;20006;-63
2023/09/08 07:57:42;;;;;;;11.32;7.18;;;22.90;99.90;;;;;;5129831;27;20054;-63
2023/09/08 08:00:10;;;;;;;10.32;6.60;;;23.00;99.90;;;;;;5108997;27;20044;-63
2023/09/08 08:02:36;;;;;;;11.80;6.55;;;23.20;99.90;;;;;;5128731;27;20110;-63
2023/09/08 08:05:02;;;;;;;7.53;6.65;;;23.30;99.90;;;;;;5107584;27;20035;-62
2023/09/08 08:07:29;;;;;;;7.13;6.40;;;23.50;99.90;;;;;;5131789;27;20030;-63
2023/09/08 08:09:55;;;;;;;7.00;6.22;;;23.60;99.90;;;;;;5110657;27;20125;-62
2023/09/08 08:12:21;;;;;;;6.82;5.90;;;23.80;99.90;;;;;;5112074;27;20200;-63
2023/09/08 08:14:46;;;;;;;12.00;6.15;;;23.90;99.90;;;;;;5111587;27;20034;-62
2023/09/08 08:17:12;;;;;;;7.65;6.13;;;24.10;99.90;;;;;;5111457;27;21772;-63
2023/09/08 08:19:38;;;;;;;7.90;6.32;;;24.00;99.90;;;;;;5093535;27;20127;-63
2023/09/08 08:22:03;;;;;;;9.27;6.43;;;24.10;99.90;;;;;;5108208;27;20067;-63
2023/09/08 08:24:29;;;;;;;9.38;6.88;;;24.20;99.90;;;;;;5108572;27;20054;-63
2023/09/08 08:26:55;;;;;;;8.43;6.50;;;24.30;99.90;;;;;;5087955;27;20152;-63
2023/09/08 08:29:20;;;;;;;8.50;6.70;;;24.40;99.90;;;;;;5128222;27;20035;-63
2023/09/08 08:31:46;;;;;;;9.43;7.32;;;24.60;99.90;;;;;;5111659;27;20799;-63
2023/09/08 08:34:12;;;;;;;10.23;6.53;;;24.80;99.90;;;;;;5111490;27;20053;-63
2023/09/08 08:36:37;;;;;;;7.75;6.90;;;25.00;99.90;;;;;;5103633;27;20483;-63
2023/09/08 08:39:05;;;;;;;7.22;6.05;;;25.00;99.90;;;;;;5107027;27;20047;-62
2023/09/08 08:41:31;;;;;;;8.15;6.43;;;25.20;99.90;;;;;;5129455;27;20513;-63
2023/09/08 08:43:58;;;;;;;6.40;5.80;;;25.20;99.90;;;;;;5110583;27;20077;-63
2023/09/08 08:46:24;;;;;;;8.48;6.28;;;25.30;99.90;;;;;;5109563;27;20383;-63
2023/09/08 08:48:54;;;;;;;9.00;6.35;;;25.40;99.60;;;;;;5127284;27;20042;-63
2023/09/08 08:51:23;;;;;;;7.68;5.85;;;25.50;99.50;;;;;;5111408;27;20570;-63
2023/09/08 08:53:48;;;;;;;6.63;5.93;;;25.70;99.20;;;;;;5092112;27;20063;-62
2023/09/08 08:56:16;;;;;;;7.50;6.43;;;25.80;98.60;;;;;;5111480;27;20038;-62
2023/09/08 08:58:42;;;;;;;7.82;6.90;;;25.90;98.10;;;;;;5129130;27;20485;-63
2023/09/08 09:01:10;;;;;;;7.20;6.38;;;25.90;97.30;;;;;;5112659;27;20108;-63
2023/09/08 09:03:37;;;;;;;7.30;5.97;;;25.80;96.80;;;;;;5103015;27;20058;-62
2023/09/08 09:06:04;;;;;;;6.97;5.60;;;25.80;97.00;;;;;;5131380;27;20047;-63
2023/09/08 09:08:31;;;;;;;8.05;5.88;;;26.00;97.30;;;;;;5129585;27;20109;-63
2023/09/08 09:10:57;;;;;;;7.38;5.35;;;26.20;97.30;;;;;;5130176;27;20062;-62
2023/09/08 09:13:23;;;;;;;9.70;5.90;;;26.30;97.30;;;;;;5129555;27;20038;-63
2023/09/08 09:15:51;;;;;;;7.00;5.53;;;26.50;97.10;;;;;;5130710;27;20455;-63
2023/09/08 09:18:16;;;;;;;6.78;5.47;;;26.70;96.70;;;;;;5111080;28;20057;-63
2023/09/08 09:20:54;;;;;;;7.93;5.75;;;26.90;97.30;;;;;;5095383;28;20051;-62
2023/09/08 09:23:34;;;;;;;7.10;5.50;;;27.10;96.00;;;;;;5112600;28;20051;-63
2023/09/08 09:26:06;;;;;;;11.05;6.30;;;27.20;96.40;;;;;;5112427;28;20046;-63
2023/09/08 09:28:32;;;;;;;6.53;5.30;;;27.30;95.40;;;;;;5111365;28;20418;-63
2023/09/08 09:30:59;;;;;;;6.13;5.45;;;27.30;95.20;;;;;;5095300;28;20125;-63
2023/09/08 09:33:24;;;;;;;8.05;5.82;;;27.30;95.10;;;;;;5131319;28;20046;-62
2023/09/08 09:35:52;;;;;;;5.40;4.90;;;27.50;94.80;;;;;;5127298;28;20450;-63
2023/09/08 09:38:20;;;;;;;10.30;5.50;;;27.60;94.90;;;;;;5112617;28;20114;-63
2023/09/08 09:40:46;;;;;;;8.32;5.20;;;27.70;94.50;;;;;;5112047;28;20073;-63
2023/09/08 09:43:13;;;;;;;7.75;4.95;;;27.90;94.40;;;;;;5111844;28;20077;-62
2023/09/08 09:45:40;;;;;;;5.35;4.57;;;27.90;93.60;;;;;;5111792;28;20084;-63
2023/09/08 09:48:07;;;;;;;9.27;5.28;;;28.10;94.10;;;;;;5130729;28;20038;-63
2023/09/08 09:50:42;;;;;;;6.18;5.25;;;28.10;93.60;;;;;;5130735;28;20043;-63
2023/09/08 09:53:16;;;;;;;8.88;4.88;;;28.20;93.40;;;;;;5095334;28;20212;-63
2023/09/08 09:55:44;;;;;;;10.80;5.55;;;28.30;93.40;;;;;;5130707;28;20122;-63
2023/09/08 09:58:11;;;;;;;16.25;5.93;;;28.50;93.40;;;;;;5130970;28;20039;-63
2023/09/08 10:00:37;;;;;;;6.20;4.68;;;28.70;93.90;;;;;;5130627;28;20035;-63
2023/09/08 10:03:07;;;;;;;6.32;4.93;;;28.80;93.50;;;;;;5112352;28;20047;-62
2023/09/08 10:05:33;;;;;;;6.05;4.47;;;29.00;92.50;;;;;;5130863;28;20027;-63
2023/09/08 10:07:59;;;;;;;11.05;6.80;;;29.10;92.80;;;;;;5128872;28;20043;-63
2023/09/08 10:10:28;;;;;;;6.88;5.32;;;29.20;93.50;;;;;;5130855;28;20046;-63
2023/09/08 10:12:55;;;;;;;6.35;5.00;;;29.30;92.30;;;;;;5095145;28;20126;-63
2023/09/08 10:15:22;;;;;;;6.93;4.95;;;29.40;91.30;;;;;;5130886;28;20035;-63
2023/09/08 10:17:55;;;;;;;7.50;5.10;;;29.40;91.50;;;;;;5111036;28;20043;-63
2023/09/08 10:20:26;;;;;;;6.57;4.90;;;29.50;91.10;;;;;;5128290;28;20043;-62
2023/09/08 10:23:11;;;;;;;;;;;29.60;91.40;;;;;;5112801;27;20092;-63
2023/09/08 10:25:43;;;;;;;7.85;5.50;;;29.80;91.80;;;;;;5112720;27;20002;-63
2023/09/08 10:28:09;;;;;;;;;;;29.90;91.20;;;;;;5095131;27;20031;-63
2023/09/08 10:30:35;;;;;;;8.55;6.18;;;29.90;91.10;;;;;;5110040;27;20405;-63
2023/09/08 10:33:02;;;;;;;8.27;5.40;;;29.90;90.50;;;;;;5131387;27;20035;-63
2023/09/08 10:35:29;;;;;;;10.05;5.75;;;30.00;90.60;;;;;;5115757;27;20103;-63
2023/09/08 10:38:27;;;;;;;7.82;5.57;;;30.10;90.40;;;;;;5115424;27;20134;-63
2023/09/08 10:40:53;;;;;;;7.63;5.00;;;30.20;90.40;;;;;;5135337;27;20054;-62
2023/09/08 10:43:20;;;;;;;8.15;5.00;;;30.30;90.20;;;;;;5115683;27;20043;-63
2023/09/08 10:45:49;;;;;;;8.77;5.40;;;30.50;90.00;;;;;;5134431;27;20047;-63
2023/09/08 10:48:15;;;;;;;5.85;5.28;;;30.50;89.10;;;;;;5112655;27;20392;-63
2023/09/08 10:50:42;;;;;;;6.95;5.05;;;30.70;88.20;;;;;;5107941;27;20090;-63
2023/09/08 10:53:14;;;;;;;7.93;4.78;;;30.80;89.30;;;;;;5125939;27;20134;-63
2023/09/08 10:55:47;;;;;;;8.75;5.10;;;31.10;89.70;;;;;;5128447;27;20439;-63
2023/09/08 10:58:28;;;;;;;7.18;5.03;;;31.40;89.30;;;;;;5112771;27;20059;-63
2023/09/08 11:00:56;;;;;;;6.13;4.93;;;31.70;89.10;;;;;;5130576;27;20465;-63
2023/09/08 11:03:47;;;;;;;4.90;4.50;;;31.80;89.40;;;;;;5114879;27;20039;-63
2023/09/08 11:06:16;;;;;;;10.32;5.60;;;31.90;88.50;;;;;;5115481;27;20043;-63
2023/09/08 11:08:43;;;;;;;6.07;4.68;;;32.00;86.80;;;;;;5115842;27;20377;-62
2023/09/08 11:11:13;;;;;;;6.25;4.97;;;32.00;86.40;;;;;;5134864;27;20046;-63
2023/09/08 11:13:42;;;;;;;4.88;4.38;;;31.90;85.30;;;;;;5131589;27;20110;-63
2023/09/08 11:16:07;;;;;;;5.43;4.40;;;32.10;86.10;;;;;;5115651;27;20045;-63
2023/09/08 11:18:34;;;;;;;12.10;5.05;;;32.20;86.50;;;;;;5097814;27;20047;-63
2023/09/08 11:21:08;;;;;;;6.72;4.45;;;32.30;85.80;;;;;;5115110;27;20046;-63
2023/09/08 11:23:34;;;;;;;5.35;4.20;;;32.50;85.60;;;;;;5116642;27;20063;-62
2023/09/08 11:26:00;;;;;;;6.68;4.70;;;32.50;85.70;;;;;;5117537;27;20568;-63
2023/09/08 11:28:27;;;;;;;4.97;4.10;;;32.60;84.60;;;;;;5115192;27;20050;-62
2023/09/08 11:30:53;;;;;;;6.22;4.10;;;32.40;82.80;;;;;;5111781;27;20043;-63
2023/09/08 11:33:27;;;;;;;5.13;4.00;;;32.30;82.50;;;;;;5113387;27;20087;-63
2023/09/08 11:35:54;;;;;;;7.55;4.20;;;32.40;83.30;;;;;;5133365;27;20040;-63
2023/09/08 11:38:27;;;;;;;5.97;4.18;;;32.40;80.10;;;;;;5114643;27;20039;-63
2023/09/08 11:40:54;;;;;;;7.25;4.13;;;32.40;80.30;;;;;;5133385;27;20490;-63
2023/09/08 11:43:20;;;;;;;7.18;4.03;;;32.30;79.30;;;;;;5098698;27;20054;-63
2023/09/08 11:45:46;;;;;;;5.82;4.00;;;32.20;79.20;;;;;;5099511;27;20043;-63
2023/09/08 11:48:14;;;;;;;4.50;4.03;;;32.30;79.10;;;;;;5132946;27;20084;-63
2023/09/08 11:50:41;;;;;;;5.50;4.32;;;32.40;79.60;;;;;;5132926;27;20035;-62
2023/09/08 11:53:07;;;;;;;6.25;4.70;;;32.30;79.00;;;;;;5132974;27;20035;-62
2023/09/08 11:55:33;;;;;;;6.88;4.05;;;32.20;79.40;;;;;;5114821;27;20485;-63
2023/09/08 11:58:01;;;;;;;6.50;3.90;;;32.10;80.60;;;;;;5115461;27;20047;-63
2023/09/08 12:00:27;;;;;;;6.28;4.30;;;32.10;79.70;;;;;;5113555;27;20054;-63
2023/09/08 12:02:54;;;;;;;7.05;3.80;;;31.90;77.70;;;;;;5112004;27;20515;-63
2023/09/08 12:05:27;;;;;;;5.30;3.78;;;31.70;78.60;;;;;;5133152;27;20031;-63
2023/09/08 12:07:58;;;;;;;4.97;3.55;;;31.60;79.30;;;;;;5132431;27;20041;-62
2023/09/08 12:10:25;;;;;;;5.85;3.83;;;31.50;78.70;;;;;;5131091;27;20532;-63
2023/09/08 12:12:59;;;;;;;5.78;4.15;;;31.30;79.80;;;;;;5135000;27;20042;-62
2023/09/08 12:15:35;;;;;;;4.78;3.67;;;31.20;79.20;;;;;;5114233;27;20502;-63
2023/09/08 12:18:03;;;;;;;4.20;3.50;;;31.00;78.80;;;;;;5114065;27;20046;-63
2023/09/08 12:20:29;;;;;;;7.43;3.58;;;30.80;76.70;;;;;;5132218;27;20104;-63
2023/09/08 12:22:59;;;;;;;8.35;3.78;;;30.70;76.80;;;;;;5110742;27;20080;-63
2023/09/08 12:25:27;;;;;;;4.32;3.38;;;30.50;76.80;;;;;;5130906;27;20070;-63
2023/09/08 12:27:54;;;;;;;5.45;3.95;;;30.30;77.40;;;;;;5112909;27;20413;-63
2023/09/08 12:30:21;;;;;;;6.78;3.60;;;30.30;77.90;;;;;;5131100;27;20042;-62
2023/09/08 12:32:51;;;;;;;4.63;3.97;;;30.30;78.70;;;;;;5113915;27;20096;-63
2023/09/08 12:35:22;;;;;;;4.25;3.72;;;30.20;78.80;;;;;;5114097;27;20121;-63
2023/09/08 12:37:59;;;;;;;5.32;3.88;;;30.10;78.50;;;;;;5132543;27;20110;-63
2023/09/08 12:40:27;;;;;;;5.20;4.03;;;30.00;78.40;;;;;;5112436;27;20051;-63